Adak, AK

1:57 PM HST on December 03, 2016 (GMT -1000)
Adak | | Change Station

Elev 13 ft 51.88 °N, 176.65 °W | Updated 1 minute ago

Overcast
Overcast
41 °F
Feels Like 30 °F
N
32
Wind Variable Wind from South
Gusts 47 mph

Today
High -- | Low -- °F
--% Chance of Precip.
Yesterday
High -- | Low -- °F
Precip. -- in
Pressure 29.83 in
Visibility 1.0 miles
Clouds Mostly Cloudy 1300 ft
Overcast 2000 ft
Windchill 30 °F
Dew Point 34 °F
Humidity 76%
Rainfall 2.51 in
Snow Depth Not available.
9:35 AM 5:37 PM
Waxing Crescent, 18% visible
METAR PADK 032356Z AUTO 19028G41KT 1SM BKN013 OVC020 05/01 A2983 RMK AO1 P0022 57030
Pressure 29.83 in
Visibility 1.0 miles
Clouds Mostly Cloudy 1300 ft
Overcast 2000 ft
Windchill 30 °F
Dew Point 34 °F
Humidity 76%
Rainfall 2.51 in
Snow Depth Not available.
9:35 AM 5:37 PM
Waxing Crescent, 18% visible
METAR PADK 032356Z AUTO 19028G41KT 1SM BKN013 OVC020 05/01 A2983 RMK AO1 P0022 57030

10-Day Weather Forecast

Almanac

Astronomy

Dec. 03, 2016 Rise Set
Actual Time
Civil Twilight
Nautical Twilight
Astronomical Twilight
Moon
Length of Visible Light
Length of Day
Tomorrow will be .
, % of the Moon is Illuminated

Today's Extremes

State Highs State Lows

Community

WunderPhotos

Upload Photos

1,955,536 photos uploaded!

WunderBlog® & News

Nearby

Air Quality

  Air Quality AQ Index Pollutant
Not available.

Snow Depth

Station Depth Elevation

Earthquake Activity

City Distance Mag. Time & Date
Minimum magnitude displayed is 2.5.

Coastal Water Temperatures

Place Temperature

Stations

Nearby Weather Stations

Station Location Temp. Windchill Dew Point Humidity Wind Precip. Elev Updated Type
                   

Watches & Warnings

There are currently no watches in effect.